Warning: include_once(/home/content/58/7474958/html/WeatherDisplay/testtags.php): failed to open stream: Stale file handle in /home/content/58/7474958/html/top.php on line 102

Warning: include_once(): Failed opening './WeatherDisplay/testtags.php' for inclusion (include_path='.:/usr/local/php5_4/lib/php') in /home/content/58/7474958/html/top.php on line 102
SE Lincoln, NE USA Weather Website - Nearby METAR Reports

Nearby METAR Reports

KLNK - Lincoln, Nebraska, USA
Distance from station: WNW 8mi, 13km
Updated: Sat, 16-Dec-2017 4:54am CST
Clear
Clear
 Wind from SSE
Wind: SSE 6 mph , 9 km/h
Temperature: 34°F , 1°C
Wind Chill: 29°F , -2°C
Dew Point: 19°F , -7°C
Humidity: 56%
Barometer: 29.76 inHg , 1007.8 hPa
Clouds: Clear
Visibility: 10 miles , 16 km
2017/12/16 10:54 KLNK 161054Z AUTO 16005KT 10SM CLR 01/M07 A2976 RMK AO2 SLP083 T00061067
KAHQ - Wahoo, Nebraska, USA
Distance from station: N 31mi, 49km
Updated: Sat, 16-Dec-2017 4:55am CST
Clear
Clear
 Wind from SW
Wind: SW 6 mph , 9 km/h
Temperature: 37°F , 3°C
Wind Chill: 32°F , 0°C
Dew Point: 19°F , -7°C
Humidity: 48%
Barometer: 29.73 inHg , 1006.8 hPa
Clouds: Clear
Visibility: 10 miles , 16 km
2017/12/16 10:55 KAHQ 161055Z AUTO 22005KT 10SM CLR 03/M07 A2973 RMK AO2 T00251066
 
KBIE - Beatrice Municip, Nebraska, USA
Distance from station: S 36mi, 57km
Updated: Sat, 16-Dec-2017 4:55am CST
Clear
Clear
 Wind from S
Wind: S 6 mph , 9 km/h
Temperature: 32°F , 0°C
Wind Chill: 26°F , -3°C
Dew Point: 23°F , -5°C
Humidity: 69%
Barometer: 29.76 inHg , 1007.8 hPa
Clouds: Clear
Visibility: 10 miles , 16 km
2017/12/16 10:55 KBIE 161055Z AUTO 19005KT 10SM CLR 00/M05 A2976 RMK AO2 T00031050
KMLE - Omaha/Millard, Nebraska, USA
Distance from station: NE 39mi, 63km
Updated: Sat, 16-Dec-2017 4:55am CST
Clear
Clear
 Wind from calm
Wind: Calm
Temperature: 36°F , 2°C
Dew Point: 23°F , -5°C
Humidity: 60%
Barometer: 29.75 inHg , 1007.5 hPa
Clouds: Clear
Visibility: 10 miles , 16 km
2017/12/16 10:55 KMLE 161055Z AUTO 00000KT 10SM CLR 02/M05 A2975 RMK AO2 T00171050
 
KPMV - Plattsmouth Muni, Nebraska, USA
Distance from station: ENE 39mi, 63km
Updated: Sat, 16-Dec-2017 4:55am CST
Clear
Clear
 Wind from S
Wind: S 8 mph , 13 km/h
Temperature: 36°F , 2°C
Wind Chill: 30°F , -1°C
Dew Point: 23°F , -5°C
Humidity: 60%
Barometer: 29.74 inHg , 1007.1 hPa
Clouds: Clear
Visibility: 10 miles , 16 km
2017/12/16 10:55 KPMV 161055Z AUTO 19007KT 10SM CLR 02/M05 A2974 RMK AO2 T00201050
KAFK - Nebraska City, Nebraska, USA
Distance from station: ESE 43mi, 69km
Updated: Sat, 16-Dec-2017 4:55am CST
Clear
Clear
 Wind from SW
Wind: SW 13 mph , 20 km/h
Temperature: 37°F , 3°C
Wind Chill: 29°F , -2°C
Dew Point: 25°F , -4°C
Humidity: 60%
Barometer: 29.75 inHg , 1007.5 hPa
Clouds: Clear
Visibility: 10 miles , 16 km
2017/12/16 10:55 KAFK 161055Z AUTO 23011KT 10SM CLR 03/M04 A2975 RMK AO2 T00281041
 
KOFF - Offutt Afb/Belle, Nebraska, USA
Distance from station: ENE 44mi, 70km
Updated: Sat, 16-Dec-2017 4:56am CST
Clear
Clear
 Wind from calm
Wind: Calm
Temperature: 23°F , -5°C
Dew Point: 18°F , -8°C
Humidity: 80%
Barometer: 29.74 inHg , 1007.1 hPa
Clouds: Clear
Visibility: 10 miles , 16 km
2017/12/16 10:56 KOFF 161056Z AUTO 00000KT 10SM CLR M05/M08 A2974 RMK AO2 SLP083 T10461077 $
KFET - Fremont Muni Arp, Nebraska, USA
Distance from station: N 46mi, 74km
Updated: Sat, 16-Dec-2017 4:55am CST
Clear
Clear
 Wind from W
Wind: W 7 mph , 11 km/h
Temperature: 34°F , 1°C
Wind Chill: 28°F , -2°C
Dew Point: 21°F , -6°C
Humidity: 60%
Barometer: 29.74 inHg , 1007.1 hPa
Clouds: Clear
Visibility: 10 miles , 16 km
2017/12/16 10:55 KFET 161055Z AUTO 26006KT 10SM CLR 01/M06 A2974 RMK AO2 T00131060
 
KBTA - Blair Muni, Nebraska, USA
Distance from station: NNE 51mi, 82km
Updated: Sat, 16-Dec-2017 4:55am CST
Clear
Clear
 Wind from SW
Wind: SW 7 mph , 11 km/h
Temperature: 34°F , 1°C
Wind Chill: 28°F , -2°C
Dew Point: 21°F , -6°C
Humidity: 60%
Barometer: 29.72 inHg , 1006.4 hPa
Clouds: Clear
Visibility: 10 miles , 16 km
2017/12/16 10:55 KBTA 161055Z AUTO 22006KT 10SM CLR 01/M06 A2972 RMK AO2 T00121056
KJYR - York, Nebraska, USA
Distance from station: W 52mi, 84km
Updated: Sat, 16-Dec-2017 4:55am CST
Clear
Clear
 Wind from SW
Wind: SW 7 mph , 11 km/h
Temperature: 27°F , -3°C
Wind Chill: 19°F , -7°C
Dew Point: 19°F , -7°C
Humidity: 74%
Barometer: 29.74 inHg , 1007.1 hPa
Clouds: Clear
Visibility: 10 miles , 16 km
2017/12/16 10:55 KJYR 161055Z AUTO 23006KT 10SM CLR M03/M07 A2974 RMK AO2
 
KOMA - Omaha/Eppley, Nebraska, USA
Distance from station: NE 53mi, 85km
Updated: Sat, 16-Dec-2017 4:52am CST
Partly Cloudy
Partly Cloudy
 Wind from SSE
Wind: SSE 6 mph , 9 km/h
Temperature: 32°F , 0°C
Wind Chill: 26°F , -3°C
Dew Point: 21°F , -6°C
Humidity: 64%
Barometer: 29.74 inHg , 1007.1 hPa
Clouds: Partly Cloudy
Visibility: 10 miles , 16 km
Cloud details: Few Clouds 13000 ft
Partly Cloudy 25000 ft
2017/12/16 10:52 KOMA 161052Z 16005KT 10SM FEW130 SCT250 00/M06 A2974 RMK AO2 SLP077 T00001061
KOLU - Columbus Muni, Nebraska, USA
Distance from station: NW 58mi, 93km
Updated: Sat, 16-Dec-2017 4:56am CST
Clear
Clear
 Wind from WNW
Wind: WNW 6 mph , 9 km/h
Temperature: 30°F , -1°C
Wind Chill: 24°F , -4°C
Dew Point: 21°F , -6°C
Humidity: 69%
Barometer: 29.73 inHg , 1006.8 hPa
Clouds: Clear
Visibility: 10 miles , 16 km
2017/12/16 10:56 KOLU 161056Z AUTO 29005KT 10SM CLR M01/M06 A2973 RMK AO2 SLP080 T10061061 FZRANO